»·PEaware :: N62GS KPHX-KTUS

N62GS :: KPHX-KTUS

FLIGHT INFORMATION

Flight Status: Arrived
Operator: Privately registered:
United States
More flights under this callsign
Pilot: Gregory S. (29260)
Aircraft: PILATUS PC-12 EAGLE
(PC12)
More flights by this aircraft type
Origin: KPHX Phoenix Sky Harbor Intl
United States
Destination: KTUS Tucson Intl
United States
More flights between these airports :: More routes between these airports
Route: TFD4 TFD DINGO5
File this flight plan on PilotEdge
Remarks:
Altitude:
(Current/Filed)
9,000ft
Speed:
(Current/Filed)
260kts
Departed: 12-Aug-20 04:04 PM
Arrived: 12-Aug-20 04:47 PM
Distance/Time
Traveled:
95nm/0:43
Distance/Time
To Go:
Arrived

Flight Plot

Page will automatically refresh every two minutes.

Flight plan parsing failed; only flown route is shown


Map Options




Map Legend


Flown Route
Filed Route
Departure Airport
Arrival Airport
Navaid (VOR, NDB)
Fix

Horizontal Profiles

Position Reports

Time Latitude Longitude Heading Altitude Ground
Speed
12-Aug-20 15:47 33.442611 -112.024734 360 1138ft 0kts
12-Aug-20 15:48 33.442611 -112.024734 360 1138ft 0kts
12-Aug-20 15:49 33.442611 -112.024734 360 1138ft 0kts
12-Aug-20 15:50 33.442611 -112.024734 359 1138ft 0kts
12-Aug-20 15:51 33.442611 -112.024734 359 1138ft 0kts
12-Aug-20 15:52 33.442639 -112.024888 231 1138ft 1kts
12-Aug-20 15:53 33.442568 -112.024927 178 1138ft 0kts
12-Aug-20 15:53 33.442568 -112.024927 178 1138ft 0kts
12-Aug-20 15:55 33.441966 -112.023062 89 1138ft 18kts
12-Aug-20 15:56 33.441972 -112.016230 90 1138ft 21kts
12-Aug-20 15:56 33.441947 -112.010189 89 1138ft 21kts
12-Aug-20 15:58 33.441955 -112.001713 90 1138ft 21kts
12-Aug-20 15:58 33.441936 -111.995658 89 1138ft 21kts
12-Aug-20 15:59 33.441792 -111.991017 174 1138ft 0kts
12-Aug-20 16:00 33.441792 -111.991017 174 1138ft 0kts
12-Aug-20 16:01 33.441792 -111.991017 174 1138ft 0kts
12-Aug-20 16:02 33.441747 -111.991010 171 1138ft 4kts
12-Aug-20 16:03 33.440814 -112.004520 269 1205ft 126kts
12-Aug-20 16:04 33.430588 -112.057907 250 2442ft 194kts
12-Aug-20 16:05 33.411377 -112.122209 250 3654ft 213kts
12-Aug-20 16:06 33.360811 -112.137635 170 4898ft 217kts
12-Aug-20 16:07 33.301494 -112.125145 169 6085ft 221kts
12-Aug-20 16:08 33.240808 -112.112107 169 7284ft 223kts
12-Aug-20 16:09 33.179330 -112.098854 167 8486ft 226kts
12-Aug-20 16:10 33.139629 -112.039658 123 9001ft 250kts
12-Aug-20 16:11 33.099777 -111.969034 123 9000ft 261kts
12-Aug-20 16:12 33.035713 -111.934282 170 8999ft 263kts
12-Aug-20 16:13 32.963264 -111.921534 171 8999ft 263kts
12-Aug-20 16:14 32.890848 -111.908489 159 9000ft 263kts
12-Aug-20 16:15 32.829821 -111.862038 145 9155ft 262kts
12-Aug-20 16:16 32.769832 -111.812450 144 9155ft 264kts
12-Aug-20 16:17 32.709536 -111.762614 144 9155ft 264kts
12-Aug-20 16:18 32.649401 -111.712993 144 9155ft 264kts
12-Aug-20 16:19 32.589029 -111.663259 144 9155ft 264kts
12-Aug-20 16:20 32.534762 -111.605715 127 9156ft 264kts
12-Aug-20 16:21 32.490595 -111.536143 126 9155ft 264kts
12-Aug-20 16:22 32.446629 -111.466523 126 9155ft 264kts
12-Aug-20 16:23 32.404347 -111.399696 126 9027ft 248kts
12-Aug-20 16:24 32.362993 -111.333065 118 9028ft 252kts
12-Aug-20 16:25 32.333372 -111.257647 114 9027ft 252kts
12-Aug-20 16:26 32.304308 -111.182522 114 9027ft 251kts
12-Aug-20 16:27 32.275224 -111.107272 114 9027ft 251kts
12-Aug-20 16:28 32.246283 -111.032330 114 9027ft 250kts
12-Aug-20 16:29 32.217353 -110.957322 114 9027ft 251kts
12-Aug-20 16:30 32.188520 -110.882508 114 9027ft 251kts
12-Aug-20 16:31 32.159631 -110.807479 114 9027ft 251kts
12-Aug-20 16:32 32.130305 -110.732486 124 9023ft 251kts
12-Aug-20 16:33 32.075225 -110.682643 144 9027ft 251kts
12-Aug-20 16:34 32.017390 -110.636637 146 9027ft 251kts
12-Aug-20 16:35 31.966558 -110.596670 145 9026ft 251kts
12-Aug-20 16:36 31.905942 -110.604140 210 9029ft 246kts
12-Aug-20 16:37 31.872920 -110.654743 308 9049ft 241kts
12-Aug-20 16:38 31.926773 -110.696663 303 8136ft 245kts
12-Aug-20 16:39 31.963794 -110.758869 312 7012ft 207kts
12-Aug-20 16:40 31.990141 -110.795559 335 6303ft 123kts
12-Aug-20 16:41 32.016860 -110.821408 313 5626ft 140kts
12-Aug-20 16:42 32.043445 -110.855299 315 4815ft 142kts
12-Aug-20 16:43 32.068808 -110.883978 313 4018ft 115kts
12-Aug-20 16:44 32.090318 -110.909089 314 3074ft 106kts
12-Aug-20 16:45 32.107369 -110.929126 316 2647ft 48kts
12-Aug-20 16:46 32.111323 -110.932150 49 2647ft 0kts
12-Aug-20 16:47 32.114848 -110.935382 314 2647ft 26kts
12-Aug-20 16:48 32.120046 -110.941477 315 2647ft 27kts
12-Aug-20 16:49 32.123711 -110.944854 225 2647ft 0kts

Navigation Log

Ident Type
Flight plan parsing failed, navigation log unavailable